createdAt,value
2022-08-22T00:19:43.937Z,61.14
2022-08-22T00:48:31.587Z,61.96
2022-08-22T01:17:24.044Z,63.14
2022-08-22T01:46:21.958Z,62.71
2022-08-22T02:14:43.266Z,68.23
2022-08-22T02:43:38.101Z,67.43
2022-08-22T03:12:37.114Z,68.16
2022-08-22T03:41:35.118Z,69.83
2022-08-22T04:10:38.409Z,70.35
2022-08-22T04:39:25.306Z,70.26
2022-08-22T05:08:25.847Z,68.81
2022-08-22T05:37:28.580Z,69.9
2022-08-22T06:06:10.298Z,67.43
2022-08-22T06:35:03.498Z,56.21
2022-08-22T07:03:44.568Z,58.86
2022-08-22T07:32:32.119Z,38.72
2022-08-22T08:01:15.292Z,46.73
2022-08-22T08:29:52.668Z,46.43
2022-08-22T08:58:38.475Z,45.01
2022-08-22T09:27:09.604Z,45.01
2022-08-22T09:56:15.857Z,41.9
2022-08-22T10:24:44.306Z,40.74
2022-08-22T10:52:59.780Z,38.9
2022-08-22T11:21:22.281Z,36.27
2022-08-22T11:49:59.119Z,36.89
2022-08-22T12:18:41.186Z,34.16
2022-08-22T12:47:11.156Z,33.35
2022-08-22T13:15:54.253Z,30.93
2022-08-22T13:44:11.624Z,29.96
2022-08-22T14:12:51.394Z,29.75
2022-08-22T14:41:05.947Z,28.9
2022-08-22T15:09:41.946Z,28.8
2022-08-22T15:38:02.016Z,30.27
2022-08-22T16:06:26.980Z,28.72
2022-08-22T16:34:57.629Z,28.41
2022-08-22T17:03:33.360Z,29.15
2022-08-22T17:32:02.221Z,29.15
2022-08-22T18:00:37.607Z,34.72
2022-08-22T18:29:11.546Z,40.8
2022-08-22T18:57:43.318Z,43.21
2022-08-22T19:26:00.134Z,46
2022-08-22T19:54:40.681Z,47.26
2022-08-22T20:23:21.858Z,49.27
2022-08-22T20:51:47.724Z,50.76
2022-08-22T21:20:14.180Z,51.41
2022-08-22T21:49:01.732Z,55.51
2022-08-22T22:17:35.826Z,55.41
2022-08-22T22:46:09.307Z,57.04
2022-08-22T23:14:44.866Z,61.27
2022-08-22T23:43:29.938Z,59.45
